Time;durP1;ratioP1;P1;durP2;ratioP2;P2;SDS_P1;SDS_P2;PMS_P1;PMS_P2;Temp;Humidity;BMP_temperature;BMP_pressure;BME280_temperature;BME280_humidity;BME280_pressure;Samples;Min_cycle;Max_cycle;Signal;HPM_P1;HPM_P2
2022/05/02 00:00:26;;;;;;;2.20;1.00;;;20.20;52.50;;;;;;4993487;28;20053;-56
2022/05/02 00:02:52;;;;;;;1.65;1.10;;;20.20;52.50;;;;;;4992149;28;20053;-56
2022/05/02 00:05:18;;;;;;;3.10;1.40;;;20.20;52.40;;;;;;4993364;28;20042;-56
2022/05/02 00:07:43;;;;;;;3.13;1.33;;;20.20;52.50;;;;;;4993034;28;20153;-56
2022/05/02 00:10:09;;;;;;;2.13;1.20;;;20.20;52.40;;;;;;4992551;28;20048;-56
2022/05/02 00:12:35;;;;;;;2.67;1.17;;;20.10;52.40;;;;;;4993202;28;20038;-56
2022/05/02 00:15:01;;;;;;;2.47;1.20;;;20.10;52.40;;;;;;4992698;28;20073;-56
2022/05/02 00:20:11;;;;;;;2.05;1.25;;;20.10;52.40;;;;;;4993170;28;20050;-56
2022/05/02 00:22:36;;;;;;;2.03;1.30;;;20.10;52.40;;;;;;4993106;28;20129;-56
2022/05/02 00:25:02;;;;;;;1.30;0.95;;;20.10;52.30;;;;;;4992356;28;20049;-56
2022/05/02 00:27:28;;;;;;;2.65;1.15;;;20.10;52.30;;;;;;4997248;28;20048;-56
2022/05/02 00:29:53;;;;;;;2.03;1.20;;;20.10;52.30;;;;;;4996051;28;20502;-56
2022/05/02 00:32:18;;;;;;;2.65;1.13;;;20.10;52.30;;;;;;4997117;28;20100;-56
2022/05/02 00:34:44;;;;;;;2.83;1.30;;;20.10;52.20;;;;;;4995161;28;20101;-56
2022/05/02 00:37:09;;;;;;;1.83;1.00;;;20.00;52.20;;;;;;4996399;28;20936;-56
2022/05/02 00:39:35;;;;;;;2.08;1.02;;;20.00;52.20;;;;;;4996624;28;20046;-56
2022/05/02 00:42:00;;;;;;;1.10;0.80;;;20.10;52.20;;;;;;4996461;28;20052;-56
2022/05/02 00:44:26;;;;;;;1.50;1.10;;;20.00;52.20;;;;;;4996030;28;20105;-56
2022/05/02 00:46:51;;;;;;;2.00;1.00;;;20.10;52.20;;;;;;4996343;28;20390;-56
2022/05/02 00:49:17;;;;;;;2.20;1.23;;;20.00;52.10;;;;;;4995538;28;20050;-55
2022/05/02 00:51:42;;;;;;;2.53;1.20;;;20.00;52.10;;;;;;4995874;28;20130;-56
2022/05/02 00:54:08;;;;;;;1.88;1.23;;;20.00;52.10;;;;;;4996835;28;20038;-56
2022/05/02 00:56:34;;;;;;;2.40;1.30;;;20.00;52.10;;;;;;4996575;28;20050;-55
2022/05/02 00:59:00;;;;;;;2.25;1.17;;;20.00;52.10;;;;;;4995642;28;20125;-56
2022/05/02 01:01:25;;;;;;;1.55;1.02;;;20.00;52.10;;;;;;4996556;28;20057;-56
2022/05/02 01:03:51;;;;;;;2.17;1.10;;;20.00;52.10;;;;;;4996196;28;20042;-55
2022/05/02 01:09:00;;;;;;;2.00;1.23;;;20.00;52.00;;;;;;4996238;28;20054;-55
2022/05/02 01:11:26;;;;;;;1.70;1.00;;;20.00;52.10;;;;;;4996461;28;20050;-55
2022/05/02 01:13:51;;;;;;;1.80;1.10;;;19.90;52.00;;;;;;4995037;28;20053;-56
2022/05/02 01:16:24;;;;;;;2.88;1.10;;;20.00;52.00;;;;;;4996336;28;20061;-56
2022/05/02 01:18:51;;;;;;;1.48;0.80;;;20.00;52.00;;;;;;4996001;28;20050;-56
2022/05/02 01:21:24;;;;;;;2.13;1.10;;;19.90;51.90;;;;;;4995362;28;20045;-56
2022/05/02 01:23:50;;;;;;;2.20;1.15;;;19.90;51.80;;;;;;4996089;28;20046;-56
2022/05/02 01:26:16;;;;;;;2.03;1.17;;;19.90;51.80;;;;;;4995243;28;20042;-56
2022/05/02 01:28:45;;;;;;;1.42;0.90;;;19.90;51.70;;;;;;4995732;28;20054;-56
2022/05/02 01:31:11;;;;;;;1.70;1.00;;;19.90;51.60;;;;;;4995951;28;20492;-56
2022/05/02 01:33:37;;;;;;;1.90;1.10;;;19.90;51.60;;;;;;4994949;28;20046;-56
2022/05/02 01:36:03;;;;;;;1.83;1.30;;;19.90;51.50;;;;;;4995610;28;20047;-56
2022/05/02 01:38:28;;;;;;;2.80;1.10;;;19.90;51.50;;;;;;4995134;28;20050;-55
2022/05/02 01:40:54;;;;;;;1.40;0.98;;;19.90;51.50;;;;;;4994755;28;20052;-56
2022/05/02 01:43:19;;;;;;;1.77;1.10;;;19.90;51.40;;;;;;4995470;28;20064;-56
2022/05/02 01:45:45;;;;;;;1.77;0.93;;;19.90;51.40;;;;;;4995180;28;20038;-56
2022/05/02 01:48:10;;;;;;;1.50;0.98;;;19.90;51.30;;;;;;4995215;28;20049;-56
2022/05/02 01:50:36;;;;;;;1.35;1.00;;;19.90;51.30;;;;;;4995709;28;20101;-56
2022/05/02 01:53:01;;;;;;;2.42;1.08;;;19.90;51.50;;;;;;4995449;28;20034;-56
2022/05/02 01:55:27;;;;;;;2.05;1.10;;;19.90;51.50;;;;;;4994507;28;20038;-56
2022/05/02 01:57:52;;;;;;;1.52;0.90;;;19.90;51.50;;;;;;4995137;28;20097;-56
2022/05/02 02:00:18;;;;;;;2.05;1.10;;;19.90;51.50;;;;;;4993599;28;20089;-56
2022/05/02 02:02:44;;;;;;;1.20;0.90;;;20.00;51.50;;;;;;4974767;28;20031;-56
2022/05/02 02:07:53;;;;;;;2.90;1.13;;;20.00;51.60;;;;;;4975732;28;20131;-56
2022/05/02 02:10:19;;;;;;;2.22;1.00;;;20.00;51.50;;;;;;4974977;28;20132;-56
2022/05/02 02:12:44;;;;;;;1.50;1.08;;;20.00;51.50;;;;;;4975667;28;20038;-56
2022/05/02 02:15:14;;;;;;;2.70;1.20;;;20.00;51.50;;;;;;4975667;28;20043;-56
2022/05/02 02:17:40;;;;;;;1.40;1.00;;;20.00;51.50;;;;;;4974674;28;20094;-56
2022/05/02 02:20:07;;;;;;;1.02;0.73;;;20.00;51.40;;;;;;4975472;28;20047;-56
2022/05/02 02:22:32;;;;;;;2.20;1.00;;;20.00;51.40;;;;;;4974655;28;20088;-56
2022/05/02 02:24:58;;;;;;;1.75;1.10;;;20.10;51.50;;;;;;4974834;28;20221;-55
2022/05/02 02:27:23;;;;;;;1.75;1.15;;;20.10;51.50;;;;;;4975600;28;20043;-55
2022/05/02 02:29:49;;;;;;;1.52;0.90;;;20.10;51.50;;;;;;4989340;28;20133;-56
2022/05/02 02:32:14;;;;;;;1.70;0.98;;;20.10;51.50;;;;;;4975202;28;20055;-55
2022/05/02 02:34:40;;;;;;;1.95;0.88;;;20.10;51.50;;;;;;4974704;28;20149;-57
2022/05/02 02:37:05;;;;;;;3.83;1.08;;;20.10;51.40;;;;;;4974669;28;20046;-56
2022/05/02 02:39:31;;;;;;;1.88;1.00;;;20.10;51.50;;;;;;4975368;28;20057;-56
2022/05/02 02:41:56;;;;;;;1.50;1.10;;;20.10;51.40;;;;;;4974941;28;20053;-56
2022/05/02 02:44:22;;;;;;;1.50;0.90;;;20.20;51.50;;;;;;4974517;28;20054;-56
2022/05/02 02:46:47;;;;;;;1.92;0.90;;;20.20;51.50;;;;;;4974931;28;20038;-56
2022/05/02 02:49:13;;;;;;;1.70;1.00;;;20.10;51.50;;;;;;4974375;28;20074;-56
2022/05/02 02:51:38;;;;;;;1.35;0.90;;;20.10;51.40;;;;;;4974076;28;20491;-56
2022/05/02 02:54:04;;;;;;;1.38;0.85;;;20.20;51.40;;;;;;4974920;28;20497;-56
2022/05/02 02:56:29;;;;;;;1.85;1.27;;;20.20;51.40;;;;;;4975123;28;20051;-56
2022/05/02 02:58:55;;;;;;;3.03;1.33;;;20.20;51.40;;;;;;4973865;28;20047;-56
2022/05/02 03:01:20;;;;;;;1.33;1.00;;;20.20;51.40;;;;;;4974632;28;20047;-56
2022/05/02 03:03:46;;;;;;;2.22;1.02;;;20.20;51.40;;;;;;4974539;28;20054;-56
2022/05/02 03:06:11;;;;;;;1.52;0.88;;;20.20;51.40;;;;;;4973977;28;20082;-56
2022/05/02 03:08:38;;;;;;;2.28;1.08;;;20.10;51.20;;;;;;4974804;28;20117;-56
2022/05/02 03:11:11;;;;;;;1.58;0.95;;;20.20;51.30;;;;;;5090595;27;20883;-55
2022/05/02 03:13:36;;;;;;;2.33;0.90;;;20.20;51.20;;;;;;5088968;28;20050;-55
2022/05/02 03:16:03;;;;;;;2.00;1.17;;;20.20;51.20;;;;;;5089909;28;20121;-55
2022/05/02 03:18:28;;;;;;;1.52;0.93;;;20.20;51.20;;;;;;5090003;28;20401;-55
2022/05/02 03:20:54;;;;;;;1.50;1.00;;;20.20;51.20;;;;;;5088777;28;20455;-55
2022/05/02 03:23:20;;;;;;;2.28;1.13;;;20.20;51.20;;;;;;5089790;28;20489;-55
2022/05/02 03:25:45;;;;;;;2.08;1.10;;;20.20;51.10;;;;;;5088991;28;20047;-55
2022/05/02 03:28:11;;;;;;;2.35;1.00;;;20.20;51.20;;;;;;5089942;28;20048;-55
2022/05/02 03:30:36;;;;;;;2.22;1.00;;;20.20;51.20;;;;;;5089755;28;20387;-55
2022/05/02 03:33:02;;;;;;;2.20;0.90;;;20.20;51.20;;;;;;5088867;28;20546;-55
2022/05/02 03:35:28;;;;;;;1.50;0.95;;;20.20;51.10;;;;;;5089823;28;20456;-55
2022/05/02 03:37:54;;;;;;;1.90;1.20;;;20.20;51.10;;;;;;5088970;28;20048;-54
2022/05/02 03:40:20;;;;;;;1.48;0.95;;;20.20;51.10;;;;;;5089260;28;20040;-55
2022/05/02 03:42:45;;;;;;;1.88;1.20;;;20.20;51.10;;;;;;5089320;28;20075;-55
2022/05/02 03:45:11;;;;;;;1.48;1.02;;;20.20;51.10;;;;;;5089396;28;20123;-55
2022/05/02 03:47:36;;;;;;;1.58;0.80;;;20.20;51.10;;;;;;5088947;28;20040;-55
2022/05/02 03:50:02;;;;;;;1.70;0.98;;;20.20;51.10;;;;;;5089376;28;20044;-55
2022/05/02 03:52:28;;;;;;;1.50;1.00;;;20.20;51.10;;;;;;5089455;28;20040;-55
2022/05/02 03:54:53;;;;;;;1.45;0.80;;;20.20;51.10;;;;;;5088512;28;20438;-54
2022/05/02 03:57:19;;;;;;;1.83;1.02;;;20.20;51.10;;;;;;5089475;28;20048;-55
2022/05/02 03:59:46;;;;;;;1.23;0.88;;;20.20;51.10;;;;;;5088786;28;20036;-54
2022/05/02 04:02:12;;;;;;;1.52;0.93;;;20.20;51.00;;;;;;5088603;28;20041;-54
2022/05/02 04:04:38;;;;;;;1.30;0.80;;;20.30;51.10;;;;;;5088723;28;20089;-54
2022/05/02 04:07:04;;;;;;;1.60;1.10;;;20.20;51.00;;;;;;5088503;28;20084;-55
2022/05/02 04:09:29;;;;;;;2.17;1.23;;;20.20;51.00;;;;;;5088182;28;20059;-54
2022/05/02 04:11:56;;;;;;;2.00;1.00;;;20.30;51.10;;;;;;5088893;28;20051;-55
2022/05/02 04:14:21;;;;;;;1.83;0.90;;;20.30;51.10;;;;;;5089033;28;20097;-54
2022/05/02 04:16:47;;;;;;;1.50;0.90;;;20.20;51.00;;;;;;5088153;28;20044;-54
2022/05/02 04:19:13;;;;;;;2.53;1.20;;;20.30;51.00;;;;;;5089187;28;20037;-54
2022/05/02 04:21:38;;;;;;;3.17;1.40;;;20.30;51.00;;;;;;5080095;28;20048;-55
2022/05/02 04:24:04;;;;;;;1.60;1.10;;;20.30;51.00;;;;;;5074711;28;20182;-54
2022/05/02 04:26:30;;;;;;;1.70;1.02;;;20.30;51.00;;;;;;5075532;28;20071;-54
2022/05/02 04:28:55;;;;;;;1.85;0.95;;;20.30;50.90;;;;;;5074760;28;20370;-54
2022/05/02 04:31:21;;;;;;;1.25;1.00;;;20.30;50.90;;;;;;5074944;28;20044;-54
2022/05/02 04:33:46;;;;;;;1.67;0.93;;;20.30;50.90;;;;;;5075031;28;20040;-55
2022/05/02 04:36:12;;;;;;;1.58;1.00;;;20.30;50.90;;;;;;5074506;28;20036;-54
2022/05/02 04:38:38;;;;;;;1.90;0.98;;;20.30;50.90;;;;;;5075108;28;20480;-54
2022/05/02 04:41:03;;;;;;;2.58;1.27;;;20.30;50.90;;;;;;5075080;28;20058;-54
2022/05/02 04:43:29;;;;;;;1.75;1.10;;;20.30;50.90;;;;;;5074159;28;20059;-55
2022/05/02 04:45:54;;;;;;;1.88;0.90;;;20.30;50.90;;;;;;5074643;28;20404;-55
2022/05/02 04:48:20;;;;;;;1.77;1.00;;;20.30;50.90;;;;;;5075163;28;20060;-55
2022/05/02 04:50:45;;;;;;;1.45;0.93;;;20.30;50.80;;;;;;5073924;28;20062;-54
2022/05/02 04:53:11;;;;;;;1.85;1.02;;;20.30;50.80;;;;;;5074765;28;20037;-55
2022/05/02 04:55:36;;;;;;;0.98;0.73;;;20.40;50.80;;;;;;5074863;28;20534;-55
2022/05/02 04:58:02;;;;;;;2.30;0.90;;;20.40;50.90;;;;;;5073933;28;20093;-54
2022/05/02 05:00:27;;;;;;;1.33;0.95;;;20.40;50.80;;;;;;5074867;28;20053;-55
2022/05/02 05:02:53;;;;;;;2.78;1.05;;;20.40;50.80;;;;;;5074572;28;20040;-55
2022/05/02 05:05:18;;;;;;;2.33;1.23;;;20.50;50.80;;;;;;5073853;28;20044;-55
2022/05/02 05:07:44;;;;;;;1.42;0.95;;;20.50;50.80;;;;;;5074255;28;20404;-55
2022/05/02 05:10:10;;;;;;;1.55;0.93;;;20.50;50.70;;;;;;5074147;28;20385;-55
2022/05/02 05:12:48;;;;;;;1.77;1.02;;;20.50;50.70;;;;;;5073633;28;20051;-55
2022/05/02 05:18:24;;;;;;;1.27;0.80;;;20.50;50.50;;;;;;5073810;28;20040;-55
2022/05/02 05:21:09;;;;;;;1.10;0.75;;;20.60;50.60;;;;;;5073944;28;20059;-55
2022/05/02 05:23:48;;;;;;;2.05;0.80;;;20.60;50.60;;;;;;5073288;28;20048;-54
2022/05/02 05:26:35;;;;;;;2.42;1.10;;;20.60;50.50;;;;;;5072185;28;20080;-55
2022/05/02 05:29:37;;;;;;;1.88;1.00;;;20.60;50.60;;;;;;5073471;28;20557;-56
2022/05/02 05:32:16;;;;;;;1.38;0.93;;;20.60;50.70;;;;;;5073757;28;20101;-55
2022/05/02 05:34:49;;;;;;;1.67;0.82;;;20.70;50.70;;;;;;5072085;28;20041;-55
2022/05/02 05:37:36;;;;;;;1.48;0.95;;;20.70;50.70;;;;;;5073064;28;20097;-55
2022/05/02 05:40:23;;;;;;;1.10;0.82;;;20.70;50.80;;;;;;5071634;28;20040;-55
2022/05/02 05:42:49;;;;;;;1.40;0.93;;;20.70;50.80;;;;;;5072754;28;20051;-55
2022/05/02 05:45:37;;;;;;;1.77;1.10;;;20.70;50.80;;;;;;5073906;28;20044;-55
2022/05/02 05:48:13;;;;;;;1.70;0.80;;;20.70;50.90;;;;;;5069670;28;20049;-55
2022/05/02 05:50:51;;;;;;;1.55;1.08;;;20.70;50.90;;;;;;5071915;28;20450;-55
2022/05/02 05:53:28;;;;;;;1.42;0.80;;;20.70;50.90;;;;;;5072567;28;20040;-55
2022/05/02 05:56:16;;;;;;;1.40;0.97;;;20.70;51.00;;;;;;5073421;28;20071;-55
2022/05/02 05:59:05;;;;;;;1.17;0.80;;;20.70;51.00;;;;;;5072229;28;20044;-55
2022/05/02 06:01:45;;;;;;;1.20;0.80;;;20.70;51.00;;;;;;5072730;28;20045;-55
2022/05/02 06:04:10;;;;;;;1.40;0.90;;;20.70;51.10;;;;;;5072530;28;20055;-55
2022/05/02 06:06:36;;;;;;;1.83;0.80;;;20.70;51.10;;;;;;5072124;28;20037;-55
2022/05/02 06:09:03;;;;;;;4.60;1.00;;;20.70;51.00;;;;;;5072160;28;20080;-55
2022/05/02 06:11:28;;;;;;;1.98;0.82;;;20.80;51.10;;;;;;5073105;28;20048;-54
2022/05/02 06:13:56;;;;;;;2.40;0.93;;;20.80;51.10;;;;;;5072985;28;20055;-55
2022/05/02 06:19:10;;;;;;;1.83;1.05;;;20.80;51.00;;;;;;5072326;28;20471;-55
2022/05/02 06:21:35;;;;;;;1.27;0.80;;;20.80;51.00;;;;;;5070932;28;20408;-54
2022/05/02 06:24:01;;;;;;;1.38;0.90;;;20.80;51.00;;;;;;5072664;28;20044;-55
2022/05/02 06:26:27;;;;;;;2.05;1.00;;;20.90;51.10;;;;;;5071809;28;20048;-54
2022/05/02 06:28:52;;;;;;;2.47;1.02;;;20.90;51.20;;;;;;5071847;28;20044;-54
2022/05/02 06:31:21;;;;;;;4.65;1.10;;;20.90;51.20;;;;;;5072989;28;20047;-55
2022/05/02 06:33:48;;;;;;;4.03;1.00;;;20.90;51.20;;;;;;5072568;28;20122;-55
2022/05/02 06:36:42;;;;;;;2.65;1.20;;;20.90;51.40;;;;;;5071886;28;20045;-54
2022/05/02 06:39:14;;;;;;;2.40;1.10;;;20.90;51.60;;;;;;5069207;28;20127;-55
2022/05/02 06:42:28;;;;;;;2.83;1.00;;;20.90;51.70;;;;;;5070645;28;20090;-55
2022/05/02 06:45:05;;;;;;;2.80;1.10;;;21.00;52.00;;;;;;5028832;28;20587;-55
2022/05/02 06:47:50;;;;;;;1.63;1.02;;;21.00;52.10;;;;;;5014122;28;20107;-54
2022/05/02 06:50:17;;;;;;;3.85;1.10;;;21.00;52.20;;;;;;5060633;28;20108;-55
2022/05/02 06:53:10;;;;;;;2.17;0.90;;;21.00;52.20;;;;;;5071259;28;20083;-55
2022/05/02 06:56:04;;;;;;;1.77;0.70;;;21.00;52.20;;;;;;5071554;28;20045;-56
2022/05/02 06:58:39;;;;;;;2.40;1.17;;;21.00;52.20;;;;;;5062686;28;20066;-55
2022/05/02 07:01:12;;;;;;;1.85;0.80;;;21.10;52.30;;;;;;5072722;28;20049;-56
2022/05/02 07:04:05;;;;;;;1.75;0.90;;;21.10;52.30;;;;;;5072615;28;20142;-55
2022/05/02 07:06:58;;;;;;;2.63;1.10;;;21.10;52.30;;;;;;5072421;28;20476;-55
2022/05/02 07:09:55;;;;;;;1.73;0.90;;;21.10;52.30;;;;;;5050440;28;20056;-55
2022/05/02 07:12:24;;;;;;;3.47;1.00;;;21.20;52.50;;;;;;5069706;28;20484;-55
2022/05/02 07:15:06;;;;;;;2.42;0.90;;;21.20;52.50;;;;;;5071499;28;20394;-55
2022/05/02 07:17:42;;;;;;;3.67;1.10;;;21.20;52.60;;;;;;5054701;28;20727;-55
2022/05/02 07:20:37;;;;;;;3.78;1.00;;;21.20;52.50;;;;;;5070811;28;20128;-55
2022/05/02 07:23:19;;;;;;;3.40;0.90;;;21.20;52.70;;;;;;5055474;28;20565;-55
2022/05/02 07:25:57;;;;;;;1.77;0.90;;;21.20;52.60;;;;;;5070438;28;20119;-55
2022/05/02 07:28:34;;;;;;;2.28;1.10;;;21.20;52.60;;;;;;5056007;28;20040;-54
2022/05/02 07:31:00;;;;;;;2.40;0.93;;;21.30;52.70;;;;;;5071829;28;20040;-55
2022/05/02 07:33:34;;;;;;;2.45;1.10;;;21.30;52.70;;;;;;5070376;28;20538;-55
2022/05/02 07:36:02;;;;;;;2.08;0.93;;;21.30;52.70;;;;;;5072008;28;20488;-55
2022/05/02 07:38:29;;;;;;;2.75;1.00;;;21.30;52.70;;;;;;5071168;28;20044;-55
2022/05/02 07:43:38;;;;;;;3.40;1.20;;;21.40;52.80;;;;;;5056568;28;20124;-55
2022/05/02 07:46:04;;;;;;;4.93;1.42;;;21.40;52.80;;;;;;5052613;28;20119;-55
2022/05/02 07:48:30;;;;;;;2.15;0.80;;;21.40;52.70;;;;;;5072040;28;20480;-55
2022/05/02 07:50:57;;;;;;;3.00;1.00;;;21.40;52.70;;;;;;5070787;28;20040;-55
2022/05/02 07:53:22;;;;;;;1.27;1.08;;;21.40;52.60;;;;;;5071490;28;20036;-55
2022/05/02 07:55:48;;;;;;;1.30;0.90;;;21.40;52.60;;;;;;5053754;28;20435;-55
2022/05/02 07:58:14;;;;;;;1.77;0.93;;;21.40;52.60;;;;;;5057805;28;20049;-55
2022/05/02 08:00:39;;;;;;;2.88;1.08;;;21.50;52.60;;;;;;5056994;28;20055;-56
2022/05/02 08:03:05;;;;;;;1.65;0.90;;;21.40;52.60;;;;;;5075835;28;20045;-56
2022/05/02 08:05:30;;;;;;;2.15;1.00;;;21.50;52.60;;;;;;5076003;28;20044;-56
2022/05/02 08:08:00;;;;;;;4.30;0.90;;;21.50;52.60;;;;;;5074692;28;20510;-56
2022/05/02 08:11:09;;;;;;;2.20;1.08;;;21.50;52.60;;;;;;5057855;28;20075;-56
2022/05/02 08:13:39;;;;;;;2.67;1.02;;;21.60;52.70;;;;;;5071940;28;20048;-56
2022/05/02 08:16:10;;;;;;;2.20;1.00;;;21.50;52.70;;;;;;5073317;28;20040;-56
2022/05/02 08:19:13;;;;;;;2.15;0.90;;;21.50;52.70;;;;;;5075753;28;20048;-55
2022/05/02 08:21:45;;;;;;;3.53;1.00;;;21.60;52.80;;;;;;5068530;28;20518;-56
2022/05/02 08:27:19;;;;;;;2.70;1.17;;;21.60;52.70;;;;;;5074389;28;20139;-56
2022/05/02 08:29:47;;;;;;;5.43;1.30;;;21.60;52.50;;;;;;5074182;28;20049;-56
2022/05/02 08:32:40;;;;;;;2.85;0.95;;;21.60;52.40;;;;;;5075471;28;20040;-56
2022/05/02 08:35:25;;;;;;;2.47;1.02;;;21.60;52.40;;;;;;5074107;28;20044;-56
2022/05/02 08:38:07;;;;;;;5.13;1.30;;;21.60;52.40;;;;;;5075013;28;20098;-57
2022/05/02 08:41:08;;;;;;;6.13;1.50;;;21.60;52.20;;;;;;5073481;28;20036;-55
2022/05/02 08:44:00;;;;;;;4.72;1.10;;;21.70;52.50;;;;;;5072988;28;20464;-55
2022/05/02 08:46:56;;;;;;;16.73;1.98;;;21.60;52.80;;;;;;5075263;28;20049;-55
2022/05/02 08:49:49;;;;;;;6.57;1.35;;;21.60;52.70;;;;;;5073263;28;20044;-55
2022/05/02 08:52:39;;;;;;;5.57;1.50;;;21.70;52.70;;;;;;5089227;28;20044;-55
2022/05/02 08:55:06;;;;;;;6.13;1.20;;;21.60;52.70;;;;;;5093878;28;20047;-55
2022/05/02 08:57:53;;;;;;;7.53;1.40;;;21.70;52.70;;;;;;5094344;28;20040;-55
2022/05/02 09:00:32;;;;;;;5.03;1.53;;;21.70;52.80;;;;;;5093887;28;20086;-55
2022/05/02 09:03:20;;;;;;;4.40;1.20;;;21.70;52.80;;;;;;5093032;28;20404;-56
2022/05/02 09:06:01;;;;;;;6.28;1.35;;;21.70;52.70;;;;;;5093474;28;20048;-55
2022/05/02 09:08:50;;;;;;;4.43;1.13;;;21.70;52.80;;;;;;5093579;28;20054;-55
2022/05/02 09:11:37;;;;;;;9.88;1.60;;;21.70;52.70;;;;;;5093564;28;20803;-56
2022/05/02 09:14:39;;;;;;;3.85;1.25;;;21.70;52.70;;;;;;5094622;28;20128;-56
2022/05/02 09:17:36;;;;;;;9.75;1.30;;;21.80;52.90;;;;;;5094719;28;20048;-55
2022/05/02 09:20:08;;;;;;;6.95;1.33;;;21.70;52.80;;;;;;5078858;28;20044;-55
2022/05/02 09:23:00;;;;;;;2.65;1.02;;;21.70;52.80;;;;;;5094788;28;20048;-55
2022/05/02 09:25:45;;;;;;;8.25;1.40;;;21.70;52.80;;;;;;5093663;28;20040;-55
2022/05/02 09:28:20;;;;;;;4.60;1.20;;;21.70;52.80;;;;;;5093518;28;20047;-55
2022/05/02 09:31:14;;;;;;;4.00;1.13;;;21.70;52.70;;;;;;5094059;28;20044;-55
2022/05/02 09:34:17;;;;;;;3.78;1.30;;;21.70;52.80;;;;;;5093161;28;20048;-55
2022/05/02 09:37:01;;;;;;;6.32;1.30;;;21.70;52.80;;;;;;5094199;28;20090;-55
2022/05/02 09:39:47;;;;;;;6.03;1.88;;;21.80;52.80;;;;;;5093722;28;20036;-55
2022/05/02 09:42:21;;;;;;;4.15;1.10;;;21.80;52.80;;;;;;5093935;28;20523;-55
2022/05/02 09:51:36;;;;;;;4.72;1.35;;;21.80;52.80;;;;;;5094076;28;20052;-56
2022/05/02 09:57:23;;;;;;;3.33;1.13;;;21.80;52.30;;;;;;5094323;28;20044;-57
2022/05/02 10:01:06;;;;;;;5.85;1.88;;;21.80;52.30;;;;;;5092932;28;20048;-56
2022/05/02 10:02:41;;;;;;;5.10;1.20;;;21.80;52.20;;;;;;5093692;28;20047;-57
2022/05/02 10:05:07;;;;;;;3.08;1.10;;;21.80;52.20;;;;;;5093744;28;20391;-56
2022/05/02 10:07:56;;;;;;;4.00;1.17;;;21.80;52.20;;;;;;5092860;28;20065;-57
2022/05/02 10:10:24;;;;;;;5.82;1.30;;;21.80;52.20;;;;;;5093323;28;20056;-57
2022/05/02 10:12:53;;;;;;;2.40;1.20;;;21.80;52.20;;;;;;5093203;28;20411;-56
2022/05/02 10:15:28;;;;;;;5.75;1.42;;;21.80;52.30;;;;;;5091419;28;20400;-56
2022/05/02 10:18:12;;;;;;;6.32;1.05;;;21.80;52.30;;;;;;5093340;28;20123;-56
2022/05/02 10:20:44;;;;;;;7.80;1.20;;;21.90;52.40;;;;;;5092468;28;20040;-56
2022/05/02 10:23:24;;;;;;;8.63;1.98;;;21.80;52.30;;;;;;5092278;28;20042;-56
2022/05/02 10:26:13;;;;;;;6.72;1.65;;;21.90;52.30;;;;;;5093218;28;20043;-57
2022/05/02 10:29:19;;;;;;;6.15;1.55;;;21.80;52.10;;;;;;5092558;28;20044;-56
2022/05/02 10:31:57;;;;;;;7.55;3.20;;;21.80;52.10;;;;;;5078399;28;20044;-57
2022/05/02 10:34:22;;;;;;;10.70;3.08;;;21.80;52.10;;;;;;5092156;28;20044;-56
2022/05/02 10:36:48;;;;;;;9.18;2.90;;;21.90;52.20;;;;;;5074245;28;20114;-57
2022/05/02 10:39:45;;;;;;;8.63;3.00;;;21.90;52.30;;;;;;5091828;28;20032;-56
2022/05/02 10:42:11;;;;;;;9.38;3.25;;;21.90;52.30;;;;;;5092383;28;20048;-57
2022/05/02 10:44:56;;;;;;;9.57;3.25;;;21.90;52.30;;;;;;5092032;28;20047;-57
2022/05/02 10:47:24;;;;;;;17.75;3.40;;;21.90;52.50;;;;;;5093252;28;20040;-56
2022/05/02 10:49:49;;;;;;;15.60;3.33;;;21.90;52.50;;;;;;5090911;28;20036;-57
2022/05/02 10:52:29;;;;;;;13.57;3.13;;;21.90;52.60;;;;;;5093199;28;20047;-58
2022/05/02 10:55:07;;;;;;;13.88;3.83;;;21.90;52.70;;;;;;5092776;28;20105;-59
2022/05/02 10:57:39;;;;;;;13.80;3.92;;;21.90;52.70;;;;;;5092378;28;20082;-57
2022/05/02 11:00:07;;;;;;;11.95;3.80;;;21.90;52.90;;;;;;5092935;28;20047;-57
2022/05/02 11:02:43;;;;;;;14.60;3.05;;;21.80;52.90;;;;;;5093047;28;20101;-57
2022/05/02 11:05:09;;;;;;;11.40;3.38;;;21.90;53.10;;;;;;5090929;28;20047;-58
2022/05/02 11:07:42;;;;;;;15.88;3.72;;;21.90;53.10;;;;;;5093004;28;20046;-57
2022/05/02 11:10:09;;;;;;;13.68;3.97;;;21.90;53.20;;;;;;5074823;28;20060;-58
2022/05/02 11:12:56;;;;;;;9.50;3.42;;;21.80;53.20;;;;;;5092643;28;20495;-57
2022/05/02 11:15:24;;;;;;;10.60;3.22;;;21.80;53.20;;;;;;5092641;28;20052;-57
2022/05/02 11:18:08;;;;;;;11.82;3.33;;;21.80;53.20;;;;;;5091826;28;20036;-58
2022/05/02 11:20:48;;;;;;;9.48;3.58;;;21.90;53.30;;;;;;5091827;28;20094;-58
2022/05/02 11:23:48;;;;;;;9.15;3.13;;;21.80;53.20;;;;;;5091358;28;20507;-58
2022/05/02 11:26:43;;;;;;;11.10;3.28;;;21.80;53.20;;;;;;5091775;28;20449;-57
2022/05/02 11:29:45;;;;;;;11.15;3.22;;;21.80;53.20;;;;;;5091537;28;20032;-58
2022/05/02 11:32:21;;;;;;;7.70;2.83;;;21.80;53.20;;;;;;5094596;28;20048;-57
2022/05/02 11:35:05;;;;;;;9.38;3.15;;;21.80;53.20;;;;;;5095297;28;20082;-58
2022/05/02 11:37:46;;;;;;;10.65;3.10;;;21.90;53.20;;;;;;5096799;28;20047;-58
2022/05/02 11:40:12;;;;;;;9.82;3.03;;;21.80;53.20;;;;;;5095798;28;20044;-57
2022/05/02 11:42:42;;;;;;;11.52;3.72;;;21.80;53.20;;;;;;5095350;28;20166;-57
2022/05/02 11:45:12;;;;;;;12.00;3.58;;;21.80;53.10;;;;;;5095765;28;20036;-58
2022/05/02 11:47:46;;;;;;;7.85;3.47;;;21.80;52.80;;;;;;5096454;28;20479;-58
2022/05/02 11:50:12;;;;;;;7.07;3.97;;;21.80;51.50;;;;;;5096392;28;20484;-57
2022/05/02 11:52:38;;;;;;;9.98;3.58;;;21.80;50.60;;;;;;5094336;28;20052;-58
2022/05/02 11:55:05;;;;;;;7.43;3.70;;;21.80;49.40;;;;;;5096131;28;20391;-57
2022/05/02 11:57:44;;;;;;;8.90;3.90;;;21.80;48.40;;;;;;5096262;28;20487;-58
2022/05/02 12:00:11;;;;;;;8.05;3.88;;;21.70;47.20;;;;;;5094407;28;20036;-58
2022/05/02 12:02:37;;;;;;;6.40;3.63;;;21.70;47.10;;;;;;5096291;28;20048;-57
2022/05/02 12:05:05;;;;;;;7.22;3.33;;;21.70;46.60;;;;;;5096036;28;20036;-57
2022/05/02 12:07:32;;;;;;;8.25;3.63;;;21.70;46.30;;;;;;5095556;28;20040;-58
2022/05/02 12:10:03;;;;;;;7.17;3.70;;;21.70;46.00;;;;;;5095264;28;20059;-57
2022/05/02 12:12:31;;;;;;;6.65;3.90;;;21.70;45.80;;;;;;5094920;28;20047;-58
2022/05/02 12:15:12;;;;;;;6.87;3.97;;;21.60;45.40;;;;;;5093738;28;20040;-57
2022/05/02 12:17:56;;;;;;;7.88;3.38;;;21.60;45.00;;;;;;5094912;28;20048;-58
2022/05/02 12:20:33;;;;;;;4.80;3.30;;;21.70;44.90;;;;;;5095290;28;20051;-58
2022/05/02 12:23:21;;;;;;;6.50;3.22;;;21.60;44.60;;;;;;5095728;28;20051;-58
2022/05/02 12:25:51;;;;;;;6.35;3.45;;;21.60;44.40;;;;;;5079181;28;20055;-58
2022/05/02 12:28:42;;;;;;;7.03;4.20;;;21.60;44.40;;;;;;5094833;28;20438;-57
2022/05/02 12:31:09;;;;;;;6.43;3.55;;;21.60;44.00;;;;;;5094427;28;20040;-57
2022/05/02 12:33:41;;;;;;;5.35;3.60;;;21.60;44.00;;;;;;5095730;28;20115;-57
2022/05/02 12:36:17;;;;;;;5.60;3.17;;;21.60;43.70;;;;;;5094932;28;20052;-58
2022/05/02 12:39:00;;;;;;;6.07;3.40;;;21.60;43.60;;;;;;5095182;28;20044;-57
2022/05/02 12:41:27;;;;;;;5.82;3.38;;;21.60;43.60;;;;;;5094204;28;20403;-57
2022/05/02 12:43:54;;;;;;;6.82;2.97;;;21.60;43.70;;;;;;5076710;28;20470;-57
2022/05/02 12:46:23;;;;;;;5.10;3.08;;;21.60;43.70;;;;;;5095556;28;20097;-57
2022/05/02 12:48:56;;;;;;;6.00;3.30;;;21.60;43.70;;;;;;5093085;28;20044;-57
2022/05/02 12:51:27;;;;;;;4.85;3.20;;;21.60;43.60;;;;;;5093838;28;20488;-57
2022/05/02 12:54:12;;;;;;;3.55;2.55;;;21.60;43.70;;;;;;5093641;28;20491;-57
2022/05/02 13:02:43;;;;;;;6.70;3.05;;;21.60;43.50;;;;;;5094157;28;20052;-57
2022/05/02 13:05:15;;;;;;;6.15;3.05;;;21.60;43.30;;;;;;5095522;28;20044;-57
2022/05/02 13:07:49;;;;;;;6.07;3.05;;;21.60;43.30;;;;;;5093311;28;20044;-57
2022/05/02 13:10:27;;;;;;;4.88;2.97;;;21.60;43.20;;;;;;5093760;28;20060;-57
2022/05/02 13:13:09;;;;;;;4.35;2.80;;;21.70;43.10;;;;;;5094638;28;20055;-57
2022/05/02 13:15:45;;;;;;;5.07;3.03;;;21.60;43.00;;;;;;5093651;28;20056;-57
2022/05/02 13:18:18;;;;;;;4.53;2.90;;;21.70;43.00;;;;;;5093894;28;20146;-57
2022/05/02 13:21:04;;;;;;;4.93;2.85;;;21.70;42.80;;;;;;5094586;28;20090;-57
2022/05/02 13:23:40;;;;;;;5.53;2.40;;;21.70;42.70;;;;;;5094121;28;20040;-57
2022/05/02 13:26:26;;;;;;;4.65;2.50;;;21.70;42.70;;;;;;5094658;28;20066;-57
2022/05/02 13:28:58;;;;;;;4.03;2.50;;;21.80;42.80;;;;;;5094448;28;20177;-57
2022/05/02 13:31:49;;;;;;;4.57;2.47;;;21.80;43.00;;;;;;5093724;28;20054;-57
2022/05/02 13:34:17;;;;;;;4.63;2.38;;;21.90;43.20;;;;;;5093633;28;20055;-57
2022/05/02 13:36:43;;;;;;;3.80;2.20;;;21.90;43.40;;;;;;5094181;28;20476;-57
2022/05/02 13:39:17;;;;;;;5.18;2.17;;;21.90;43.50;;;;;;5093644;28;20044;-57
2022/05/02 13:41:47;;;;;;;4.88;2.50;;;21.90;43.60;;;;;;5092937;28;20100;-57
2022/05/02 13:44:43;;;;;;;3.55;2.08;;;22.00;43.70;;;;;;5092702;28;20552;-58
2022/05/02 13:47:13;;;;;;;4.68;2.08;;;22.10;43.90;;;;;;5061613;28;20048;-58
2022/05/02 13:49:47;;;;;;;4.97;2.47;;;22.10;44.00;;;;;;5092627;28;20486;-57